createdAt,value
2019-05-23T00:00:12.832Z,88.31
2019-05-23T00:01:12.837Z,88.21
2019-05-23T00:02:12.852Z,88.12
2019-05-23T00:03:12.858Z,88.40
2019-05-23T00:04:12.864Z,88.59
2019-05-23T00:05:12.888Z,88.78
2019-05-23T00:06:12.900Z,88.78
2019-05-23T00:07:12.886Z,88.50
2019-05-23T00:08:12.895Z,89.36
2019-05-23T00:09:12.909Z,89.45
2019-05-23T00:10:12.914Z,90.03
2019-05-23T00:11:12.920Z,89.36
2019-05-23T00:12:12.927Z,89.50
2019-05-23T00:13:12.936Z,89.36
2019-05-23T00:14:12.943Z,89.26
2019-05-23T00:15:13.026Z,88.93
2019-05-23T00:16:12.956Z,89.12
2019-05-23T00:17:12.969Z,89.22
2019-05-23T00:18:12.990Z,89.31
2019-05-23T00:19:12.983Z,89.36
2019-05-23T00:20:12.991Z,88.64
2019-05-23T00:21:13.001Z,89.12
2019-05-23T00:22:13.016Z,88.84
2019-05-23T00:23:13.018Z,89.60
2019-05-23T00:24:13.019Z,89.31
2019-05-23T00:25:13.028Z,89.26
2019-05-23T00:26:13.033Z,89.26
2019-05-23T00:27:13.055Z,88.93
2019-05-23T00:28:13.047Z,88.26
2019-05-23T00:29:13.057Z,88.26
2019-05-23T00:30:13.065Z,88.17
2019-05-23T00:31:13.074Z,88.74
2019-05-23T00:32:13.081Z,88.74
2019-05-23T00:33:13.091Z,88.84
2019-05-23T00:34:13.093Z,89.12
2019-05-23T00:35:13.107Z,89.03
2019-05-23T00:36:13.111Z,89.40
2019-05-23T00:37:13.117Z,89.40
2019-05-23T00:38:13.126Z,89.50
2019-05-23T00:39:13.145Z,89.22
2019-05-23T00:40:13.141Z,89.31
2019-05-23T00:41:13.151Z,89.50
2019-05-23T00:42:13.152Z,88.45
2019-05-23T00:43:13.166Z,88.84
2019-05-23T00:44:13.182Z,88.45
2019-05-23T00:45:13.183Z,88.64
2019-05-23T00:46:13.189Z,89.31
2019-05-23T00:47:13.194Z,89.40
2019-05-23T00:48:13.208Z,89.22
2019-05-23T00:49:13.219Z,89.22
2019-05-23T00:50:13.216Z,88.98
2019-05-23T00:51:13.258Z,89.12
2019-05-23T00:52:13.232Z,88.55
2019-05-23T00:53:13.240Z,88.70
2019-05-23T00:54:13.262Z,88.98
2019-05-23T00:55:13.256Z,87.98
2019-05-23T00:56:13.290Z,88.26
2019-05-23T00:57:13.271Z,88.12
2019-05-23T00:58:13.275Z,88.07
2019-05-23T00:59:26.048Z,88.26
2019-05-23T01:00:13.300Z,87.84
2019-05-23T01:01:13.304Z,87.84
2019-05-23T01:02:13.318Z,88.55
2019-05-23T01:03:13.316Z,88.26
2019-05-23T01:04:13.329Z,88.41
2019-05-23T01:05:13.334Z,88.79
2019-05-23T01:06:13.338Z,89.36
2019-05-23T01:07:13.349Z,88.41
2019-05-23T01:08:13.358Z,87.84
2019-05-23T01:09:13.362Z,88.03
2019-05-23T01:10:13.369Z,88.31
2019-05-23T01:11:13.379Z,86.98
2019-05-23T01:12:13.384Z,86.98
2019-05-23T01:13:13.394Z,86.88
2019-05-23T01:14:13.398Z,86.60
2019-05-23T01:15:13.406Z,87.84
2019-05-23T01:16:13.415Z,87.07
2019-05-23T01:17:13.466Z,87.36
2019-05-23T01:18:13.428Z,86.69
2019-05-23T01:19:13.437Z,87.74
2019-05-23T01:20:13.441Z,87.46
2019-05-23T01:21:13.453Z,87.46
2019-05-23T01:22:13.555Z,86.88
2019-05-23T01:23:13.468Z,87.55
2019-05-23T01:24:13.475Z,86.79
2019-05-23T01:25:13.485Z,87.07
2019-05-23T01:26:13.491Z,86.12
2019-05-23T01:27:13.488Z,86.03
2019-05-23T01:28:13.504Z,86.22
2019-05-23T01:29:13.516Z,86.88
2019-05-23T01:30:13.518Z,87.46
2019-05-23T01:31:13.527Z,86.88
2019-05-23T01:32:13.537Z,87.07
2019-05-23T01:33:13.538Z,87.27
2019-05-23T01:34:13.553Z,87.84
2019-05-23T01:35:13.559Z,88.12
2019-05-23T01:36:13.568Z,88.31
2019-05-23T01:37:13.573Z,88.12
2019-05-23T01:38:13.578Z,87.65
2019-05-23T01:39:13.590Z,88.31
2019-05-23T01:40:13.600Z,87.60
2019-05-23T01:41:13.602Z,87.51
2019-05-23T01:42:13.611Z,86.94
2019-05-23T01:43:13.612Z,87.23
2019-05-23T01:44:13.621Z,88.27
2019-05-23T01:45:13.630Z,87.60
2019-05-23T01:46:13.637Z,88.08
2019-05-23T01:47:13.647Z,88.18
2019-05-23T01:48:13.653Z,87.93
2019-05-23T01:49:13.656Z,88.18
2019-05-23T01:50:13.666Z,88.56
2019-05-23T01:51:13.676Z,88.46
2019-05-23T01:52:13.687Z,88.08
2019-05-23T01:53:13.682Z,87.51
2019-05-23T01:54:13.699Z,87.41
2019-05-23T01:55:13.711Z,87.32
2019-05-23T01:56:13.715Z,87.03
2019-05-23T01:57:13.724Z,87.51
2019-05-23T01:58:13.723Z,88.08
2019-05-23T01:59:13.735Z,88.18
2019-05-23T02:00:13.753Z,87.79
2019-05-23T02:01:13.748Z,88.18
2019-05-23T02:02:13.758Z,87.79
2019-05-23T02:03:13.767Z,87.89
2019-05-23T02:04:13.779Z,87.89
2019-05-23T02:05:13.786Z,87.89
2019-05-23T02:06:13.784Z,87.89
2019-05-23T02:07:13.796Z,88.56
2019-05-23T02:08:13.837Z,88.18
2019-05-23T02:09:13.806Z,88.18
2019-05-23T02:10:13.995Z,87.32
2019-05-23T02:11:13.818Z,87.03
2019-05-23T02:12:13.833Z,87.23
2019-05-23T02:13:13.839Z,87.13
2019-05-23T02:14:13.844Z,87.13
2019-05-23T02:15:13.852Z,87.41
2019-05-23T02:16:13.865Z,87.89
2019-05-23T02:17:13.865Z,87.98
2019-05-23T02:18:13.891Z,87.89
2019-05-23T02:19:13.986Z,88.08
2019-05-23T02:20:13.886Z,87.51
2019-05-23T02:21:13.897Z,87.13
2019-05-23T02:22:13.900Z,87.41
2019-05-23T02:23:13.908Z,86.94
2019-05-23T02:24:13.929Z,87.41
2019-05-23T02:25:13.989Z,86.94
2019-05-23T02:26:13.939Z,87.51
2019-05-23T02:27:13.939Z,87.03
2019-05-23T02:28:13.949Z,87.13
2019-05-23T02:29:13.955Z,87.13
2019-05-23T02:30:32.289Z,87.60
2019-05-23T02:31:13.967Z,87.60
2019-05-23T02:32:13.975Z,88.27
2019-05-23T02:33:13.994Z,87.79
2019-05-23T02:34:13.993Z,88.08
2019-05-23T02:35:13.998Z,87.98
2019-05-23T02:36:14.011Z,87.98
2019-05-23T02:37:14.010Z,88.08
2019-05-23T02:38:14.022Z,88.37
2019-05-23T02:39:14.027Z,86.94
2019-05-23T02:40:14.036Z,87.03
2019-05-23T02:41:14.061Z,87.32
2019-05-23T02:42:14.049Z,88.27
2019-05-23T02:43:14.059Z,87.23
2019-05-23T02:44:14.062Z,87.60
2019-05-23T02:45:14.069Z,87.51
2019-05-23T02:46:14.081Z,87.03
2019-05-23T02:47:14.082Z,88.08
2019-05-23T02:48:14.091Z,87.98
2019-05-23T02:49:14.096Z,88.37
2019-05-23T02:50:14.105Z,88.37
2019-05-23T02:51:14.115Z,88.84
2019-05-23T02:52:14.116Z,88.65
2019-05-23T02:53:14.131Z,88.27
2019-05-23T02:54:14.133Z,88.46
2019-05-23T02:55:14.143Z,88.08
2019-05-23T02:56:14.149Z,88.75
2019-05-23T02:57:14.158Z,88.56
2019-05-23T02:58:14.160Z,88.08
2019-05-23T02:59:14.173Z,88.56
2019-05-23T03:00:14.180Z,87.98
2019-05-23T03:01:14.185Z,88.60
2019-05-23T03:02:14.196Z,88.18
2019-05-23T03:03:14.198Z,87.41
2019-05-23T03:04:14.204Z,87.23
2019-05-23T03:05:14.213Z,86.75
2019-05-23T03:06:14.219Z,87.13
2019-05-23T03:07:14.225Z,87.41
2019-05-23T03:08:14.233Z,87.51
2019-05-23T03:09:14.238Z,87.89
2019-05-23T03:10:14.244Z,88.27
2019-05-23T03:11:14.259Z,87.98
2019-05-23T03:12:14.263Z,88.27
2019-05-23T03:13:14.274Z,87.51
2019-05-23T03:14:14.279Z,87.51
2019-05-23T03:15:14.289Z,87.89
2019-05-23T03:16:14.288Z,87.70
2019-05-23T03:17:14.301Z,87.98
2019-05-23T03:18:14.306Z,88.37
2019-05-23T03:19:14.314Z,88.65
2019-05-23T03:20:14.321Z,88.93
2019-05-23T03:21:14.341Z,88.84
2019-05-23T03:22:14.338Z,88.84
2019-05-23T03:23:14.345Z,89.22
2019-05-23T03:24:14.354Z,88.84
2019-05-23T03:25:14.357Z,89.79
2019-05-23T03:26:14.364Z,89.98
2019-05-23T03:27:14.377Z,90.08
2019-05-23T03:28:14.375Z,90.17
2019-05-23T03:29:14.388Z,90.75
2019-05-23T03:30:14.416Z,90.75
2019-05-23T03:31:29.453Z,90.46
2019-05-23T03:33:18.432Z,90.46
2019-05-23T03:34:18.451Z,90.08
2019-05-23T03:36:22.429Z,90.08
2019-05-23T03:37:22.425Z,89.89
2019-05-23T03:39:26.446Z,90.75
2019-05-23T03:40:26.446Z,90.17
2019-05-23T03:42:19.866Z,89.89
2019-05-23T03:43:19.860Z,89.79
2019-05-23T03:45:23.860Z,89.70
2019-05-23T03:46:23.870Z,89.70
2019-05-23T03:48:27.879Z,89.32
2019-05-23T03:49:27.863Z,89.03
2019-05-23T03:51:32.362Z,89.13
2019-05-23T03:52:32.359Z,88.84
2019-05-23T03:54:36.829Z,89.13
2019-05-23T03:55:36.841Z,89.70
2019-05-23T03:57:41.324Z,89.13
2019-05-23T03:58:41.319Z,89.41
2019-05-23T04:00:45.804Z,89.03
2019-05-23T04:01:48.231Z,89.98
2019-05-23T04:03:50.298Z,89.70
2019-05-23T04:04:50.298Z,89.79
2019-05-23T04:06:54.783Z,89.98
2019-05-23T04:07:54.783Z,89.89
2019-05-23T04:09:58.780Z,90.08
2019-05-23T04:10:58.787Z,90.56
2019-05-23T04:13:02.794Z,90.94
2019-05-23T04:14:02.790Z,91.03
2019-05-23T04:16:06.793Z,91.13
2019-05-23T04:17:06.798Z,90.84
2019-05-23T04:19:11.287Z,90.65
2019-05-23T04:20:11.281Z,90.46
2019-05-23T04:22:04.313Z,90.94
2019-05-23T04:23:04.225Z,90.75
2019-05-23T04:25:08.709Z,90.17
2019-05-23T04:26:08.707Z,90.46
2019-05-23T04:28:12.718Z,90.56
2019-05-23T04:29:12.717Z,90.94
2019-05-23T04:30:12.733Z,90.46
2019-05-23T04:31:13.541Z,90.84
2019-05-23T04:32:12.735Z,90.27
2019-05-23T04:33:14.433Z,89.98
2019-05-23T04:34:20.436Z,89.84
2019-05-23T04:36:17.265Z,90.08
2019-05-23T04:37:17.286Z,89.98
2019-05-23T04:39:21.768Z,90.12
2019-05-23T04:40:21.760Z,89.84
2019-05-23T04:41:21.773Z,90.03
2019-05-23T04:42:21.777Z,90.12
2019-05-23T04:43:21.784Z,90.03
2019-05-23T04:44:21.806Z,89.75
2019-05-23T04:45:21.809Z,89.36
2019-05-23T04:46:21.807Z,89.55
2019-05-23T04:47:21.811Z,89.07
2019-05-23T04:48:21.823Z,89.26
2019-05-23T04:49:21.844Z,89.07
2019-05-23T04:50:21.848Z,89.26
2019-05-23T04:51:21.849Z,89.46
2019-05-23T04:52:21.855Z,88.79
2019-05-23T04:53:21.863Z,89.26
2019-05-23T04:54:21.865Z,89.17
2019-05-23T04:55:21.876Z,88.98
2019-05-23T04:56:21.880Z,89.55
2019-05-23T04:57:21.889Z,89.36
2019-05-23T04:58:21.892Z,89.26
2019-05-23T04:59:21.906Z,89.65
2019-05-23T05:00:21.906Z,89.55
2019-05-23T05:01:21.920Z,89.75
2019-05-23T05:02:26.090Z,90.31
2019-05-23T05:03:21.928Z,89.84
2019-05-23T05:04:21.935Z,90.22
2019-05-23T05:05:21.950Z,90.60
2019-05-23T05:06:21.955Z,90.70
2019-05-23T05:07:21.960Z,90.41
2019-05-23T05:08:21.964Z,90.98
2019-05-23T05:09:21.976Z,91.36
2019-05-23T05:10:21.980Z,91.46
2019-05-23T05:11:21.989Z,90.84
2019-05-23T05:12:21.997Z,90.70
2019-05-23T05:13:22.001Z,90.89
2019-05-23T05:14:22.037Z,90.50
2019-05-23T05:15:22.036Z,91.13
2019-05-23T05:16:22.023Z,91.31
2019-05-23T05:17:22.035Z,91.22
2019-05-23T05:18:22.046Z,91.22
2019-05-23T05:19:22.045Z,90.26
2019-05-23T05:20:22.117Z,90.26
2019-05-23T05:21:22.060Z,90.74
2019-05-23T05:22:22.065Z,90.84
2019-05-23T05:23:22.077Z,90.64
2019-05-23T05:24:22.085Z,90.74
2019-05-23T05:25:22.091Z,90.74
2019-05-23T05:26:22.106Z,90.64
2019-05-23T05:27:22.107Z,90.36
2019-05-23T05:28:22.113Z,90.64
2019-05-23T05:29:22.123Z,90.55
2019-05-23T05:30:22.125Z,90.55
2019-05-23T05:31:22.136Z,90.55
2019-05-23T05:32:22.138Z,90.64
2019-05-23T05:33:22.147Z,90.84
2019-05-23T05:34:22.155Z,90.84
2019-05-23T05:35:22.165Z,90.26
2019-05-23T05:36:22.181Z,90.84
2019-05-23T05:37:22.177Z,91.31
2019-05-23T05:38:22.188Z,91.03
2019-05-23T05:39:22.192Z,91.79
2019-05-23T05:40:22.202Z,91.69
2019-05-23T05:41:22.220Z,91.69
2019-05-23T05:42:22.218Z,92.17
2019-05-23T05:43:22.227Z,92.65
2019-05-23T05:44:22.482Z,91.98
2019-05-23T05:45:22.238Z,92.65
2019-05-23T05:46:22.241Z,92.55
2019-05-23T05:47:22.248Z,93.03
2019-05-23T05:48:22.261Z,93.12
2019-05-23T05:49:22.268Z,93.12
2019-05-23T05:50:22.278Z,93.03
2019-05-23T05:51:22.285Z,93.08
2019-05-23T05:52:22.289Z,93.08
2019-05-23T05:53:22.297Z,93.08
2019-05-23T05:54:22.304Z,92.98
2019-05-23T05:55:22.319Z,93.17
2019-05-23T05:56:22.331Z,93.27
2019-05-23T05:57:22.327Z,93.46
2019-05-23T05:58:22.342Z,93.55
2019-05-23T05:59:22.338Z,93.84
2019-05-23T06:00:22.349Z,94.32
2019-05-23T06:01:33.518Z,94.22
2019-05-23T06:02:22.364Z,94.60
2019-05-23T06:03:22.370Z,94.22
2019-05-23T06:04:22.376Z,94.22
2019-05-23T06:05:22.389Z,94.22
2019-05-23T06:06:22.394Z,94.56
2019-05-23T06:07:22.400Z,94.07
2019-05-23T06:08:22.457Z,95.12
2019-05-23T06:09:22.416Z,95.03
2019-05-23T06:10:22.429Z,94.36
2019-05-23T06:11:22.431Z,95.03
2019-05-23T06:12:22.444Z,94.74
2019-05-23T06:13:22.444Z,94.93
2019-05-23T06:14:22.450Z,94.74
2019-05-23T06:15:22.457Z,94.84
2019-05-23T06:16:22.469Z,94.27
2019-05-23T06:17:22.474Z,94.74
2019-05-23T06:18:22.487Z,94.84
2019-05-23T06:19:22.497Z,94.93
2019-05-23T06:20:22.499Z,94.27
2019-05-23T06:21:22.506Z,94.17
2019-05-23T06:22:22.554Z,95.08
2019-05-23T06:23:22.525Z,95.03
2019-05-23T06:24:39.284Z,95.36
2019-05-23T06:25:22.537Z,95.17
2019-05-23T06:26:22.554Z,95.65
2019-05-23T06:27:22.552Z,94.98
2019-05-23T06:28:22.569Z,94.89
2019-05-23T06:29:22.903Z,95.75
2019-05-23T06:30:22.576Z,95.94
2019-05-23T06:31:22.584Z,96.22
2019-05-23T06:32:22.592Z,95.65
2019-05-23T06:33:24.352Z,95.36
2019-05-23T06:34:22.608Z,95.17
2019-05-23T06:35:22.613Z,95.94
2019-05-23T06:36:22.625Z,95.65
2019-05-23T06:37:22.630Z,95.56
2019-05-23T06:38:22.640Z,95.56
2019-05-23T06:39:22.645Z,95.75
2019-05-23T06:40:22.661Z,95.70
2019-05-23T06:41:22.662Z,95.75
2019-05-23T06:42:22.807Z,95.70
2019-05-23T06:43:22.691Z,96.27
2019-05-23T06:44:22.698Z,96.46
2019-05-23T06:45:22.716Z,96.27
2019-05-23T06:46:22.711Z,96.46
2019-05-23T06:47:22.712Z,96.56
2019-05-23T06:48:22.715Z,96.56
2019-05-23T06:49:22.728Z,96.17
2019-05-23T06:50:22.740Z,96.46
2019-05-23T06:51:22.740Z,96.46
2019-05-23T06:52:22.744Z,96.46
2019-05-23T06:53:22.781Z,96.46
2019-05-23T06:54:22.761Z,96.56
2019-05-23T06:55:22.767Z,96.08
2019-05-23T06:56:22.777Z,96.70
2019-05-23T06:57:22.821Z,95.70
2019-05-23T06:58:23.316Z,96.17
2019-05-23T06:59:22.798Z,95.98
2019-05-23T07:00:22.804Z,96.03
2019-05-23T07:01:22.816Z,96.51
2019-05-23T07:02:22.826Z,95.84
2019-05-23T07:03:40.050Z,95.46
2019-05-23T07:04:22.840Z,95.07
2019-05-23T07:05:22.854Z,94.02
2019-05-23T07:06:22.857Z,93.84
2019-05-23T07:07:22.922Z,91.16
2019-05-23T07:08:25.291Z,90.49
2019-05-23T07:09:22.881Z,90.16
2019-05-23T07:10:22.899Z,89.87
2019-05-23T07:11:22.894Z,90.92
2019-05-23T07:12:22.903Z,91.20
2019-05-23T07:13:22.912Z,91.02
2019-05-23T07:14:22.921Z,90.34
2019-05-23T07:15:22.929Z,89.77
2019-05-23T07:16:22.939Z,89.10
2019-05-23T07:17:22.941Z,89.01
2019-05-23T07:18:22.949Z,88.19
2019-05-23T07:19:22.955Z,87.81
2019-05-23T07:20:22.976Z,88.00
2019-05-23T07:21:22.972Z,88.67
2019-05-23T07:22:22.983Z,88.57
2019-05-23T07:23:22.996Z,88.57
2019-05-23T07:24:22.999Z,88.09
2019-05-23T07:25:23.009Z,87.33
2019-05-23T07:26:23.021Z,86.66
2019-05-23T07:27:23.024Z,85.51
2019-05-23T07:28:23.046Z,85.51
2019-05-23T07:29:23.064Z,85.65
2019-05-23T07:30:23.084Z,85.75
2019-05-23T07:31:23.066Z,85.46
2019-05-23T07:32:23.064Z,85.46
2019-05-23T07:33:23.076Z,84.88
2019-05-23T07:34:23.086Z,84.69
2019-05-23T07:35:23.094Z,84.31
2019-05-23T07:36:23.102Z,84.41
2019-05-23T07:37:23.108Z,84.59
2019-05-23T07:38:23.117Z,85.55
2019-05-23T07:39:23.125Z,86.13
2019-05-23T07:40:23.152Z,85.17
2019-05-23T07:41:23.144Z,84.02
2019-05-23T07:42:23.153Z,83.83
2019-05-23T07:43:23.166Z,84.45
2019-05-23T07:44:23.175Z,85.31
2019-05-23T07:45:23.174Z,86.17
2019-05-23T07:46:23.187Z,85.50
2019-05-23T07:47:23.197Z,85.88
2019-05-23T07:48:23.204Z,86.17
2019-05-23T07:49:23.215Z,86.08
2019-05-23T07:50:23.216Z,86.55
2019-05-23T07:51:23.226Z,85.41
2019-05-23T07:52:23.236Z,84.06
2019-05-23T07:53:23.244Z,84.16
2019-05-23T07:54:23.256Z,82.06
2019-05-23T07:55:23.261Z,83.01
2019-05-23T07:56:23.272Z,84.16
2019-05-23T07:57:23.274Z,84.74
2019-05-23T07:58:23.292Z,84.74
2019-05-23T07:59:23.293Z,84.64
2019-05-23T08:00:23.301Z,85.02
2019-05-23T08:01:23.317Z,83.59
2019-05-23T08:02:25.879Z,82.24
2019-05-23T08:03:23.325Z,83.44
2019-05-23T08:04:23.343Z,83.82
2019-05-23T08:05:23.345Z,83.63
2019-05-23T08:06:23.351Z,82.09
2019-05-23T08:07:23.399Z,84.01
2019-05-23T08:08:23.376Z,85.45
2019-05-23T08:09:23.376Z,84.11
2019-05-23T08:10:33.001Z,84.49
2019-05-23T08:11:23.398Z,83.25
2019-05-23T08:12:23.416Z,84.01
2019-05-23T08:13:23.410Z,84.39
2019-05-23T08:14:23.424Z,82.76
2019-05-23T08:15:23.434Z,82.38
2019-05-23T08:16:23.442Z,82.29
2019-05-23T08:17:23.451Z,82.96
2019-05-23T08:18:23.456Z,83.05
2019-05-23T08:19:23.471Z,82.48
2019-05-23T08:20:23.479Z,83.92
2019-05-23T08:21:23.491Z,83.34
2019-05-23T08:22:23.502Z,82.29
2019-05-23T08:23:23.498Z,83.15
2019-05-23T08:24:23.518Z,82.96
2019-05-23T08:25:23.521Z,83.05
2019-05-23T08:26:23.542Z,84.01
2019-05-23T08:27:23.572Z,84.39
2019-05-23T08:28:23.548Z,83.72
2019-05-23T08:29:26.623Z,83.29
2019-05-23T08:30:23.568Z,80.99
2019-05-23T08:31:23.577Z,82.04
2019-05-23T08:32:23.587Z,80.45
2019-05-23T08:33:23.603Z,80.07
2019-05-23T08:34:40.015Z,80.55
2019-05-23T08:35:23.610Z,82.37
2019-05-23T08:36:23.620Z,82.46
2019-05-23T08:37:23.633Z,81.64
2019-05-23T08:38:23.636Z,80.58
2019-05-23T08:39:23.645Z,81.93
2019-05-23T08:40:23.676Z,80.68
2019-05-23T08:41:23.665Z,80.49
2019-05-23T08:42:23.678Z,78.72
2019-05-23T08:43:23.676Z,79.91
2019-05-23T08:44:23.695Z,79.91
2019-05-23T08:45:23.709Z,81.35
2019-05-23T08:46:23.716Z,80.49
2019-05-23T08:47:23.727Z,81.74
2019-05-23T08:48:23.731Z,81.60
2019-05-23T08:49:23.738Z,80.55
2019-05-23T08:50:24.365Z,81.70
2019-05-23T08:51:23.757Z,82.37
2019-05-23T08:52:23.767Z,81.60
2019-05-23T08:53:23.779Z,81.51
2019-05-23T08:54:23.788Z,80.26
2019-05-23T08:55:23.798Z,79.97
2019-05-23T08:56:23.813Z,78.63
2019-05-23T08:57:23.815Z,81.60
2019-05-23T08:58:23.830Z,81.60
2019-05-23T08:59:23.836Z,82.94
2019-05-23T09:00:23.858Z,81.60
2019-05-23T09:01:23.850Z,82.18
2019-05-23T09:02:23.860Z,83.14
2019-05-23T09:03:23.867Z,83.52
2019-05-23T09:04:23.875Z,81.60
2019-05-23T09:05:23.893Z,83.04
2019-05-23T09:06:23.913Z,79.59
2019-05-23T09:07:23.908Z,78.05
2019-05-23T09:08:23.918Z,80.07
2019-05-23T09:09:29.598Z,80.64
2019-05-23T09:10:23.940Z,80.26
2019-05-23T09:11:23.952Z,79.01
2019-05-23T09:12:23.966Z,80.16
2019-05-23T09:13:23.969Z,80.74
2019-05-23T09:14:23.978Z,80.83
2019-05-23T09:15:23.987Z,77.76
2019-05-23T09:16:23.989Z,77.58
2019-05-23T09:17:24.004Z,77.95
2019-05-23T09:18:24.018Z,80.07
2019-05-23T09:19:24.019Z,80.64
2019-05-23T09:20:24.030Z,81.31
2019-05-23T09:21:24.041Z,82.27
2019-05-23T09:22:24.052Z,82.27
2019-05-23T09:23:24.124Z,78.05
2019-05-23T09:24:24.073Z,77.29
2019-05-23T09:25:24.078Z,78.92
2019-05-23T09:26:24.086Z,80.55
2019-05-23T09:27:24.094Z,80.16
2019-05-23T09:28:24.114Z,80.26
2019-05-23T09:29:24.114Z,80.74
2019-05-23T09:30:24.128Z,79.74
2019-05-23T09:31:24.138Z,79.64
2019-05-23T09:32:24.145Z,79.93
2019-05-23T09:33:24.154Z,81.08
2019-05-23T09:34:24.160Z,82.14
2019-05-23T09:35:24.170Z,80.26
2019-05-23T09:36:24.179Z,80.32
2019-05-23T09:37:24.330Z,82.62
2019-05-23T09:38:24.202Z,80.41
2019-05-23T09:39:24.204Z,82.14
2019-05-23T09:40:24.222Z,81.66
2019-05-23T09:41:24.230Z,79.36
2019-05-23T09:42:24.237Z,81.41
2019-05-23T09:43:24.248Z,81.66
2019-05-23T09:44:24.257Z,80.60
2019-05-23T09:45:24.273Z,80.74
2019-05-23T09:46:24.308Z,82.75
2019-05-23T09:47:24.280Z,81.22
2019-05-23T09:48:24.296Z,82.37
2019-05-23T09:49:24.316Z,83.52
2019-05-23T09:50:24.313Z,81.31
2019-05-23T09:51:24.323Z,80.45
2019-05-23T09:52:24.331Z,81.12
2019-05-23T09:53:24.341Z,78.92
2019-05-23T09:54:24.346Z,77.48
2019-05-23T09:55:24.358Z,77.48
2019-05-23T09:56:24.366Z,78.53
2019-05-23T09:57:24.379Z,75.75
2019-05-23T09:58:24.385Z,74.31
2019-05-23T09:59:24.394Z,74.83
2019-05-23T10:00:24.408Z,73.87
2019-05-23T10:01:24.412Z,74.73
2019-05-23T10:02:24.425Z,76.65
2019-05-23T10:03:24.435Z,75.02
2019-05-23T10:04:24.442Z,74.44
2019-05-23T10:05:40.673Z,75.12
2019-05-23T10:06:24.462Z,74.93
2019-05-23T10:07:24.474Z,73.39
2019-05-23T10:08:24.483Z,76.69
2019-05-23T10:09:24.489Z,77.84
2019-05-23T10:10:24.516Z,75.54
2019-05-23T10:11:24.509Z,75.45
2019-05-23T10:12:24.516Z,76.79
2019-05-23T10:13:38.603Z,75.25
2019-05-23T10:14:24.536Z,75.63
2019-05-23T10:15:24.542Z,76.40
2019-05-23T10:16:24.558Z,76.12
2019-05-23T10:17:24.797Z,74.29
2019-05-23T10:18:24.576Z,76.98
2019-05-23T10:19:24.594Z,76.50
2019-05-23T10:20:24.593Z,76.21
2019-05-23T10:21:24.603Z,76.79
2019-05-23T10:22:24.613Z,75.35
2019-05-23T10:23:24.622Z,76.54
2019-05-23T10:24:24.631Z,77.59
2019-05-23T10:25:24.645Z,75.77
2019-05-23T10:26:24.655Z,73.81
2019-05-23T10:27:24.661Z,72.47
2019-05-23T10:28:24.671Z,74.33
2019-05-23T10:29:24.681Z,72.89
2019-05-23T10:30:24.696Z,72.56
2019-05-23T10:31:24.702Z,70.39
2019-05-23T10:32:24.713Z,67.86
2019-05-23T10:33:24.717Z,66.93
2019-05-23T10:34:24.736Z,71.73
2019-05-23T10:35:24.738Z,71.25
2019-05-23T10:36:24.750Z,72.99
2019-05-23T10:37:24.760Z,72.50
2019-05-23T10:38:24.768Z,71.25
2019-05-23T10:39:24.779Z,72.41
2019-05-23T10:40:24.792Z,72.79
2019-05-23T10:41:24.800Z,73.66
2019-05-23T10:42:24.814Z,72.89
2019-05-23T10:43:24.820Z,74.23
2019-05-23T10:44:24.829Z,75.71
2019-05-23T10:45:24.841Z,74.55
2019-05-23T10:46:24.854Z,75.71
2019-05-23T10:47:24.865Z,76.96
2019-05-23T10:48:24.884Z,73.11
2019-05-23T10:49:24.881Z,71.29
2019-05-23T10:50:24.895Z,70.90
2019-05-23T10:51:24.918Z,71.29
2019-05-23T10:52:24.917Z,70.23
2019-05-23T10:53:24.917Z,71.33
2019-05-23T10:54:24.932Z,72.86
2019-05-23T10:55:24.942Z,70.23
2019-05-23T10:56:24.994Z,70.46
2019-05-23T10:57:24.960Z,71.81
2019-05-23T10:58:25.037Z,71.42
2019-05-23T10:59:24.985Z,71.91
2019-05-23T11:00:24.998Z,73.54
2019-05-23T11:01:25.005Z,75.07
2019-05-23T11:02:27.166Z,74.21
2019-05-23T11:03:25.026Z,73.06
2019-05-23T11:04:25.033Z,73.06
2019-05-23T11:05:25.051Z,73.25
2019-05-23T11:06:25.058Z,76.36
2019-05-23T11:07:25.067Z,74.98
2019-05-23T11:08:29.076Z,75.17
2019-05-23T11:09:37.471Z,72.13
2019-05-23T11:10:25.103Z,70.01
2019-05-23T11:11:25.110Z,68.76
2019-05-23T11:12:25.121Z,69.92
2019-05-23T11:13:25.130Z,70.01
2019-05-23T11:14:25.143Z,70.53
2019-05-23T11:15:25.149Z,72.45
2019-05-23T11:16:25.161Z,71.49
2019-05-23T11:17:25.168Z,70.53
2019-05-23T11:18:25.188Z,66.24
2019-05-23T11:19:25.196Z,66.14
2019-05-23T11:20:25.212Z,68.38
2019-05-23T11:21:25.228Z,68.10
2019-05-23T11:22:25.229Z,65.05
2019-05-23T11:23:25.237Z,61.80
2019-05-23T11:24:25.252Z,61.16
2019-05-23T11:25:25.338Z,61.51
2019-05-23T11:26:25.278Z,59.12
2019-05-23T11:27:25.300Z,60.34
2019-05-23T11:28:25.303Z,62.92
2019-05-23T11:29:27.408Z,59.69
2019-05-23T11:30:25.334Z,61.58
2019-05-23T11:31:25.349Z,59.00
2019-05-23T11:32:25.368Z,62.84
2019-05-23T11:33:25.380Z,61.15
2019-05-23T11:34:25.411Z,54.22
2019-05-23T11:35:25.409Z,51.92
2019-05-23T11:36:35.574Z,50.99
2019-05-23T11:37:25.462Z,46.40
2019-05-23T11:38:25.461Z,43.71
2019-05-23T11:39:25.645Z,41.79
2019-05-23T11:40:25.495Z,39.57
2019-05-23T11:41:25.544Z,41.05
2019-05-23T11:42:25.539Z,39.61
2019-05-23T11:43:25.556Z,38.84
2019-05-23T11:44:25.581Z,37.01
2019-05-23T11:45:25.590Z,40.55
2019-05-23T11:46:25.613Z,38.32
2019-05-23T11:47:25.635Z,37.26
2019-05-23T11:48:25.650Z,39.43
2019-05-23T11:49:25.666Z,40.33
2019-05-23T11:50:25.692Z,36.06
2019-05-23T11:51:26.196Z,36.35
2019-05-23T11:52:25.730Z,38.72
2019-05-23T11:53:25.748Z,33.22
2019-05-23T11:54:25.772Z,32.03
2019-05-23T11:55:25.801Z,33.89
2019-05-23T11:56:25.821Z,35.76
2019-05-23T11:57:25.837Z,34.30
2019-05-23T11:58:25.863Z,36.37
2019-05-23T11:59:25.894Z,32.82
2019-05-23T12:00:25.904Z,33.43
2019-05-23T12:01:25.917Z,32.94
2019-05-23T12:02:25.941Z,32.76
2019-05-23T12:03:25.966Z,33.07
2019-05-23T12:04:25.984Z,31.89
2019-05-23T12:05:26.234Z,32.38
2019-05-23T12:06:26.664Z,29.75
2019-05-23T12:07:26.050Z,29.94
2019-05-23T12:08:26.081Z,28.97
2019-05-23T12:09:26.088Z,27.40
2019-05-23T12:10:26.131Z,29.07
2019-05-23T12:11:26.134Z,30.94
2019-05-23T12:12:26.161Z,28.89
2019-05-23T12:13:26.182Z,28.00
2019-05-23T12:14:26.207Z,28.20
2019-05-23T12:15:26.223Z,28.41
2019-05-23T12:16:26.259Z,26.93
2019-05-23T12:17:26.271Z,27.91
2019-05-23T12:18:26.292Z,31.07
2019-05-23T12:19:26.316Z,28.02
2019-05-23T12:20:26.329Z,27.82
2019-05-23T12:21:26.363Z,26.17
2019-05-23T12:22:26.388Z,25.87
2019-05-23T12:23:26.401Z,26.57
2019-05-23T12:24:26.428Z,26.68
2019-05-23T12:25:26.461Z,25.79
2019-05-23T12:26:26.474Z,27.97
2019-05-23T12:27:26.501Z,27.87
2019-05-23T12:28:26.521Z,25.51
2019-05-23T12:29:26.538Z,25.90
2019-05-23T12:30:26.564Z,28.86
2019-05-23T12:31:26.587Z,26.68
2019-05-23T12:32:26.609Z,27.96
2019-05-23T12:33:26.633Z,28.26
2019-05-23T12:34:26.759Z,28.27
2019-05-23T12:35:26.674Z,28.17
2019-05-23T12:36:26.703Z,27.61
2019-05-23T12:37:26.724Z,24.75
2019-05-23T12:38:26.748Z,26.92
2019-05-23T12:39:26.772Z,30.19
2019-05-23T12:40:26.793Z,29.60
2019-05-23T12:41:26.819Z,26.25
2019-05-23T12:42:26.837Z,23.69
2019-05-23T12:43:26.865Z,23.19
2019-05-23T12:44:26.889Z,25.46
2019-05-23T12:45:26.904Z,25.07
2019-05-23T12:46:26.931Z,23.10
2019-05-23T12:47:26.950Z,23.10
2019-05-23T12:48:26.977Z,23.10
2019-05-23T12:49:26.995Z,23.79
2019-05-23T12:50:27.030Z,25.07
2019-05-23T12:51:27.068Z,24.67
2019-05-23T12:52:27.064Z,23.88
2019-05-23T12:53:27.088Z,24.48
2019-05-23T12:54:27.114Z,25.76
2019-05-23T12:55:27.133Z,23.88
2019-05-23T12:56:27.156Z,25.27
2019-05-23T12:57:27.188Z,24.88
2019-05-23T12:58:27.200Z,24.88
2019-05-23T12:59:27.223Z,24.68
2019-05-23T13:00:27.249Z,23.02
2019-05-23T13:01:27.271Z,22.61
2019-05-23T13:02:27.364Z,24.09
2019-05-23T13:03:27.311Z,23.99
2019-05-23T13:04:27.335Z,24.01
2019-05-23T13:05:27.353Z,24.01
2019-05-23T13:06:27.385Z,21.93
2019-05-23T13:07:36.136Z,23.91
2019-05-23T13:08:27.436Z,21.64
2019-05-23T13:09:27.522Z,21.04
2019-05-23T13:10:27.568Z,21.82
2019-05-23T13:11:27.488Z,21.82
2019-05-23T13:12:27.516Z,21.42
2019-05-23T13:13:27.532Z,21.81
2019-05-23T13:14:27.554Z,21.60